Data for 03/16/2008

Time Sea-Level Adjusted Pressure Absolute Pressure Temperature Relative Humidity Dew Point   
(mb) (inHg) (mb) (inHg) (C) (F) (%) (C) (F)
00:05 1010 29.83 840 24.81 -2 28.5 67 -7.3 18.9
00:10 1010 29.83 840 24.81 -1.8 28.7 68 -7 19.4
00:15 1010 29.83 840 24.81 -1.8 28.7 69 -6.8 19.8
00:20 1010 29.83 840 24.81 -2.1 28.3 69 -7 19.5
00:25 1010 29.83 840 24.81 -2.3 27.9 70 -7 19.3
00:30 1010 29.83 840 24.81 -2.5 27.5 70 -7.2 19.1
00:35 1010 29.83 840 24.81 -2.6 27.3 70 -7.3 18.9
00:40 1010 29.83 840 24.81 -2.5 27.5 70 -7.2 19
00:45 1011 29.85 840 24.81 -2.5 27.4 70 -7.2 19
00:50 1011 29.85 840 24.81 -2.7 27.2 70 -7.4 18.7
00:55 1011 29.85 840 24.81 -2.8 26.9 70 -7.5 18.5
01:00 1011 29.85 840 24.81 -2.8 26.9 70 -7.6 18.3
01:05 1011 29.85 840 24.81 -2.8 27 70 -7.5 18.5
01:10 1011 29.85 840 24.81 -2.6 27.3 70 -7.4 18.6
01:15 1011 29.85 840 24.81 -2.6 27.4 69 -7.4 18.6
01:20 1011 29.85 840 24.81 -2.5 27.5 69 -7.4 18.7
01:25 1011 29.85 840 24.81 -2.3 27.9 69 -7.3 18.9
01:30 1011 29.85 840 24.81 -2.3 28 69 -7.3 18.9
01:35 1011 29.85 840 24.81 -2.3 27.8 69 -7.3 18.8
01:40 1011 29.85 840 24.81 -2.3 27.8 69 -7.3 18.8
01:45 1011 29.85 840 24.81 -2.5 27.4 69 -7.4 18.7
01:50 1011 29.85 840 24.81 -2.6 27.2 69 -7.5 18.5
01:55 1011 29.85 840 24.81 -2.6 27.2 70 -7.5 18.6
02:00 1011 29.85 840 24.81 -2.6 27.3 70 -7.4 18.7
02:05 1011 29.85 840 24.81 -2.4 27.6 69 -7.3 18.9
02:10 1011 29.85 840 24.81 -2.3 27.8 69 -7.3 18.9
02:15 1011 29.85 840 24.81 -2.3 27.9 69 -7.2 19
02:20 1011 29.85 840 24.81 -2.4 27.7 70 -7.2 19.1
02:25 1011 29.85 840 24.81 -2.6 27.2 70 -7.4 18.8
02:30 1011 29.85 840 24.81 -3 26.6 71 -7.5 18.5
02:35 1011 29.85 840 24.81 -3.2 26.3 72 -7.5 18.5
02:40 1011 29.85 840 24.81 -3 26.6 72 -7.4 18.7
02:45 1011 29.85 840 24.81 -2.9 26.7 72 -7.3 18.8
02:50 1011 29.85 840 24.81 -2.9 26.7 72 -7.3 18.9
02:55 1011 29.85 840 24.81 -3 26.7 73 -7.1 19.2
03:00 1011 29.85 840 24.81 -2.8 27 75 -6.6 20.2
03:05 1011 29.85 840 24.81 -2.5 27.6 75 -6.3 20.7
03:10 1011 29.85 840 24.81 -2.4 27.7 76 -6.1 20.9
03:15 1011 29.85 840 24.81 -2.3 27.9 77 -5.7 21.7
03:20 1011 29.85 840 24.81 -2.4 27.7 81 -5.2 22.6
03:25 1011 29.85 840 24.81 -2.4 27.7 85 -4.6 23.6
03:30 1011 29.85 840 24.81 -2.4 27.7 86 -4.4 24.2
03:35 1011 29.85 840 24.81 -2.2 28 88 -4 24.8
03:40 1011 29.85 840 24.81 -2.1 28.3 88 -3.8 25.1
03:45 1011 29.85 840 24.81 -2 28.4 88 -3.7 25.3
03:50 1011 29.85 840 24.81 -2.1 28.2 88 -3.8 25.2
03:55 1011 29.85 840 24.81 -2.2 28.1 90 -3.6 25.5
04:00 1011 29.85 840 24.81 -2 28.4 90 -3.4 25.9
04:05 1011 29.85 840 24.81 -1.9 28.7 91 -3.2 26.3
04:10 1011 29.85 840 24.81 -1.9 28.6 91 -3.1 26.4
04:15 1011 29.85 840 24.81 -2 28.4 92 -3.2 26.3
04:20 1011 29.85 840 24.81 -2.1 28.1 93 -3.2 26.2
04:25 1011 29.85 840 24.81 -2.2 28.1 92 -3.3 26.1
04:30 1011 29.85 840 24.81 -2.3 27.9 92 -3.4 25.9
04:35 1011 29.85 840 24.81 -2.2 28 92 -3.3 26.1
04:40 1011 29.85 840 24.81 -2.1 28.2 93 -3.2 26.3
04:45 1011 29.85 840 24.81 -2.1 28.3 93 -3.1 26.4
04:50 1011 29.85 841 24.83 -2 28.4 93 -3 26.6
04:55 1011 29.85 841 24.83 -2 28.4 92 -3.1 26.5
05:00 1011 29.85 841 24.83 -2.3 27.9 93 -3.3 26
05:05 1011 29.85 841 24.83 -2.5 27.6 93 -3.5 25.7
05:10 1011 29.85 841 24.83 -2.4 27.7 93 -3.4 25.9
05:15 1011 29.85 841 24.83 -2.3 27.8 93 -3.4 26
05:20 1012 29.88 841 24.83 -2.3 27.8 93 -3.3 26
05:25 1012 29.88 841 24.83 -2.2 28 93 -3.2 26.2
05:30 1012 29.88 841 24.83 -2.2 28.1 93 -3.2 26.3
05:35 1012 29.88 841 24.83 -2.1 28.1 93 -3.2 26.2
05:40 1012 29.88 841 24.83 -2.4 27.7 92 -3.6 25.6
05:45 1012 29.88 841 24.83 -2.5 27.5 91 -3.7 25.3
05:50 1012 29.88 841 24.83 -2.5 27.5 91 -3.8 25.1
05:55 1012 29.88 841 24.83 -2.5 27.5 90 -3.9 25
06:00 1012 29.88 841 24.83 -2.4 27.6 90 -3.9 25.1
06:05 1012 29.88 841 24.83 -2.4 27.8 90 -3.8 25.2
06:10 1012 29.88 841 24.83 -2.3 27.9 90 -3.7 25.3
06:15 1012 29.88 841 24.83 -2.3 27.9 90 -3.7 25.3
06:20 1012 29.88 841 24.83 -2.3 27.9 90 -3.8 25.2
06:25 1012 29.88 841 24.83 -2.3 27.9 90 -3.7 25.3
06:30 1012 29.88 841 24.83 -2.3 27.9 90 -3.7 25.3
06:35 1012 29.88 841 24.83 -2.3 27.9 90 -3.7 25.3
06:40 1012 29.88 841 24.83 -2.3 27.8 90 -3.8 25.2
06:45 1012 29.88 841 24.83 -2.4 27.7 91 -3.7 25.3
06:50 1012 29.88 841 24.83 -2.5 27.5 91 -3.8 25.2
06:55 1012 29.88 841 24.83 -2.7 27.1 92 -3.8 25.2
07:00 1012 29.88 841 24.83 -2.4 27.6 93 -3.4 25.8
07:05 1012 29.88 841 24.83 -2.1 28.2 93 -3.1 26.4
07:10 1012 29.88 841 24.83 -2 28.5 93 -2.9 26.8
07:15 1012 29.88 842 24.86 -1.9 28.5 93 -2.9 26.8
07:20 1012 29.88 842 24.86 -2 28.4 94 -2.9 26.8
07:25 1012 29.88 842 24.86 -2.1 28.3 94 -2.9 26.8
07:30 1012 29.88 842 24.86 -2 28.4 94 -2.8 26.9
07:35 1013 29.91 842 24.86 -2 28.4 95 -2.8 27
07:40 1013 29.91 842 24.86 -2.1 28.3 94 -2.8 26.9
07:45 1013 29.91 842 24.86 -2.1 28.3 95 -2.8 27
07:50 1013 29.91 842 24.86 -2.1 28.2 95 -2.9 26.8
07:55 1013 29.91 842 24.86 -2.2 28 95 -3 26.7
08:00 1013 29.91 842 24.86 -2.2 28 95 -2.9 26.8
08:05 1013 29.91 842 24.86 -2.2 28 95 -2.9 26.8
08:10 1013 29.91 842 24.86 -2.1 28.1 95 -2.8 27
08:15 1013 29.91 842 24.86 -2.1 28.3 95 -2.7 27.1
08:20 1013 29.91 842 24.86 -2 28.3 95 -2.7 27.1
08:25 1013 29.91 842 24.86 -2 28.3 95 -2.7 27.1
08:30 1013 29.91 842 24.86 -2.1 28.3 96 -2.7 27.2
08:35 1013 29.91 842 24.86 -2 28.4 95 -2.6 27.2
08:40 1013 29.91 843 24.89 -2 28.4 96 -2.6 27.3
08:45 1013 29.91 843 24.89 -1.9 28.6 95 -2.5 27.5
08:50 1014 29.94 843 24.89 -1.7 28.9 95 -2.4 27.7
08:55 1014 29.94 843 24.89 -1.6 29.1 95 -2.4 27.8
09:00 1014 29.94 843 24.89 -1.6 29.1 95 -2.3 27.8
09:05 1014 29.94 843 24.89 -1.5 29.2 95 -2.3 27.9
09:10 1014 29.94 843 24.89 -1.5 29.3 95 -2.3 27.9
09:15 1014 29.94 843 24.89 -1.5 29.3 94 -2.3 27.9
09:20 1014 29.94 843 24.89 -1.5 29.4 94 -2.3 27.9
09:25 1014 29.94 843 24.89 -1.4 29.4 94 -2.3 27.8
09:30 1014 29.94 843 24.89 -1.4 29.4 94 -2.3 27.8
09:35 1014 29.94 843 24.89 -1.4 29.4 93 -2.4 27.7
09:40 1014 29.94 843 24.89 -1.4 29.4 93 -2.4 27.7
09:45 1014 29.94 843 24.89 -1.3 29.6 93 -2.4 27.7
09:50 1014 29.94 843 24.89 -1.2 29.9 92 -2.3 27.9
09:55 1014 29.94 843 24.89 -1 30.2 92 -2.2 28
10:00 1014 29.94 843 24.89 -1 30.2 91 -2.3 27.9
10:05 1014 29.94 843 24.89 -0.7 30.7 90 -2.1 28.2
10:10 1014 29.94 844 24.92 -0.6 31 90 -2 28.4
10:15 1014 29.94 844 24.92 -0.3 31.4 89 -1.9 28.5
10:20 1014 29.94 844 24.92 -0.3 31.5 89 -1.9 28.6
10:25 1015 29.97 844 24.92 -0.1 31.7 88 -1.8 28.7
10:30 1015 29.97 844 24.92 -0.1 31.8 88 -1.8 28.7
10:35 1015 29.97 844 24.92 -0.2 31.7 88 -1.9 28.6
10:40 1015 29.97 844 24.92 -0 31.9 88 -1.8 28.7
10:45 1015 29.97 844 24.92 -0 32 87 -2 28.4
10:50 1015 29.97 844 24.92 -0.1 31.8 87 -2.1 28.3
10:55 1015 29.97 844 24.92 -0 31.9 87 -2 28.4
11:00 1015 29.97 844 24.92 0.1 32.3 86 -1.9 28.6
11:05 1015 29.97 844 24.92 0.3 32.5 86 -1.7 28.9
11:10 1015 29.97 844 24.92 0.5 32.9 85 -1.7 28.9
11:15 1015 29.97 844 24.92 0.6 33.1 84 -1.8 28.8
11:20 1015 29.97 844 24.92 0.7 33.2 82 -2.1 28.3
11:25 1015 29.97 844 24.92 0.7 33.2 81 -2.2 28
11:30 1015 29.97 844 24.92 1.1 33.9 80 -1.9 28.5
11:35 1015 29.97 844 24.92 1.4 34.5 78 -2 28.3
11:40 1015 29.97 844 24.92 1.4 34.5 76 -2.3 27.8
11:45 1015 29.97 844 24.92 1.2 34.1 76 -2.6 27.3
11:50 1015 29.97 844 24.92 1.1 33.9 76 -2.7 27.1
11:55 1015 29.97 844 24.92 1 33.8 76 -2.8 26.9
12:00 1015 29.97 844 24.92 1.1 34.1 76 -2.6 27.4
12:05 1015 29.97 844 24.92 1.2 34.2 74 -2.9 26.8
12:10 1015 29.97 844 24.92 1.1 34 75 -2.8 27
12:15 1015 29.97 844 24.92 1.4 34.5 74 -2.8 27
12:20 1015 29.97 844 24.92 1.8 35.3 72 -2.6 27.2
12:25 1015 29.97 844 24.92 1.9 35.5 71 -2.7 27.1
12:30 1015 29.97 844 24.92 2 35.6 68 -3.2 26.2
12:35 1015 29.97 844 24.92 1.2 34.2 70 -3.6 25.5
12:40 1015 29.97 844 24.92 1.2 34.1 69 -3.9 25
12:45 1015 29.97 844 24.92 0.7 33.3 71 -4 24.7
12:50 1015 29.97 844 24.92 0.8 33.5 70 -4 24.8
12:55 1015 29.97 844 24.92 0.7 33.3 71 -4.1 24.7
13:00 1015 29.97 844 24.92 0.8 33.4 69 -4.3 24.2
13:05 1015 29.97 844 24.92 0.6 33.1 68 -4.6 23.8
13:10 1015 29.97 844 24.92 0.9 33.6 69 -4.2 24.5
13:15 1015 29.97 844 24.92 1.6 34.8 66 -4.1 24.7
13:20 1015 29.97 844 24.92 1.5 34.7 66 -4.2 24.5
13:25 1015 29.97 844 24.92 1.8 35.3 65 -4 24.9
13:30 1015 29.97 844 24.92 2.1 35.8 64 -4 24.8
13:35 1015 29.97 844 24.92 2.8 37.1 59 -4.3 24.3
13:40 1015 29.97 844 24.92 3.3 37.9 55 -4.9 23.2
13:45 1015 29.97 844 24.92 2.8 37 57 -4.8 23.3
13:50 1015 29.97 844 24.92 2.3 36.1 58 -5.1 22.8
13:55 1015 29.97 844 24.92 1.7 35 60 -5.2 22.6
14:00 1015 29.97 844 24.92 1.6 34.9 61 -5.1 22.8
14:05 1015 29.97 844 24.92 3 37.3 58 -4.5 23.8
14:10 1015 29.97 844 24.92 3.6 38.4 56 -4.5 23.9
14:15 1015 29.97 844 24.92 3.1 37.6 54 -5.2 22.7
14:20 1015 29.97 844 24.92 2.4 36.3 56 -5.5 22.1
14:25 1015 29.97 844 24.92 2.3 36.1 57 -5.3 22.5
14:30 1015 29.97 844 24.92 2.1 35.8 59 -5 22.9
14:35 1015 29.97 844 24.92 2.4 36.3 60 -4.7 23.6
14:40 1015 29.97 844 24.92 2.9 37.2 58 -4.7 23.6
14:45 1015 29.97 844 24.92 3.1 37.5 56 -4.8 23.3
14:50 1015 29.97 844 24.92 3 37.3 55 -5.3 22.5
14:55 1015 29.97 844 24.92 3 37.4 52 -5.8 21.6
15:00 1015 29.97 844 24.92 3.1 37.5 51 -6.2 20.8
15:05 1015 29.97 844 24.92 2.8 37.1 51 -6.4 20.6
15:10 1015 29.97 844 24.92 3.5 38.3 49 -6.3 20.7
15:15 1015 29.97 844 24.92 2.7 36.8 53 -6 21.2
15:20 1015 29.97 844 24.92 2.5 36.4 51 -6.7 19.9
15:25 1015 29.97 844 24.92 2.2 35.9 53 -6.4 20.5
15:30 1015 29.97 844 24.92 2.5 36.5 51 -6.6 20.2
15:35 1015 29.97 844 24.92 2.7 36.9 50 -6.8 19.8
15:40 1015 29.97 844 24.92 3.1 37.5 49 -6.7 20
15:45 1015 29.97 844 24.92 4 39.2 47 -6.3 20.7
15:50 1015 29.97 844 24.92 3.2 37.7 51 -6 21.3
15:55 1015 29.97 844 24.92 2.7 36.9 52 -6.2 20.8
16:00 1015 29.97 844 24.92 2.6 36.6 51 -6.5 20.4
16:05 1015 29.97 844 24.92 3.5 38.3 50 -6 21.2
16:10 1015 29.97 845 24.95 3.4 38.2 51 -5.8 21.5
16:15 1015 29.97 845 24.95 3.3 37.9 51 -6 21.2
16:20 1015 29.97 845 24.95 3.4 38 49 -6.2 20.8
16:25 1015 29.97 845 24.95 2.9 37.2 53 -5.9 21.4
16:30 1015 29.97 845 24.95 3 37.4 53 -5.7 21.8
16:35 1015 29.97 845 24.95 3.3 37.9 54 -5.2 22.6
16:40 1015 29.97 845 24.95 3.3 37.9 52 -5.7 21.8
16:45 1015 29.97 845 24.95 3.1 37.6 52 -5.9 21.4
16:50 1015 29.97 845 24.95 3.1 37.7 51 -6 21.2
16:55 1015 29.97 845 24.95 3.1 37.6 52 -5.8 21.5
17:00 1015 29.97 845 24.95 3.1 37.5 52 -6 21.3
17:05 1015 29.97 845 24.95 2.6 36.7 52 -6.2 20.9
17:10 1015 29.97 845 24.95 3.2 37.7 50 -6.3 20.6
17:15 1015 29.97 845 24.95 3.4 38.1 50 -6.2 20.9
17:20 1015 29.97 845 24.95 3.6 38.5 47 -6.5 20.2
17:25 1016 30 845 24.95 3.4 38.1 47 -7 19.5
17:30 1016 30 845 24.95 4 39.3 45 -6.8 19.7
17:35 1016 30 845 24.95 4.1 39.5 44 -7.1 19.3
17:40 1016 30 845 24.95 4.1 39.3 44 -7 19.4
17:45 1016 30 845 24.95 4.1 39.3 44 -7.1 19.2
17:50 1016 30 845 24.95 4.2 39.5 44 -6.9 19.6
17:55 1016 30 845 24.95 4 39.1 45 -6.9 19.5
18:00 1016 30 845 24.95 3.8 38.9 45 -7.1 19.2
18:05 1016 30 845 24.95 3.6 38.4 45 -7.2 19
18:10 1016 30 845 24.95 3 37.5 47 -7.3 18.9
18:15 1016 30 845 24.95 3 37.4 47 -7.3 18.9
18:20 1016 30 845 24.95 3.1 37.5 46 -7.3 18.8
18:25 1016 30 845 24.95 2.9 37.3 49 -6.8 19.7
18:30 1016 30 845 24.95 2.5 36.4 55 -5.6 21.9
18:35 1016 30 845 24.95 1.6 35 65 -4.3 24.2
18:40 1016 30 846 24.98 0.3 32.5 72 -4.1 24.5
18:45 1016 30 846 24.98 0.6 33.1 71 -4.1 24.7
18:50 1016 30 845 24.95 0.6 33.1 71 -4.1 24.5
18:55 1016 30 846 24.98 0.7 33.3 68 -4.6 23.8
19:00 1016 30 846 24.98 1 33.7 66 -4.8 23.4
19:05 1016 30 845 24.95 1.1 34 65 -4.7 23.5
19:10 1016 30 845 24.95 1.3 34.3 64 -4.8 23.4
19:15 1016 30 846 24.98 1.6 34.9 62 -4.8 23.3
19:20 1016 30 846 24.98 1.8 35.2 59 -5.3 22.5
19:25 1016 30 846 24.98 1.6 34.8 60 -5.5 22.2
19:30 1017 30.03 846 24.98 1.4 34.6 62 -5.1 22.8
19:35 1017 30.03 846 24.98 1 33.9 66 -4.7 23.5
19:40 1017 30.03 846 24.98 0.4 32.8 69 -4.6 23.7
19:45 1017 30.03 846 24.98 -0 32 71 -4.7 23.6
19:50 1017 30.03 846 24.98 -0.2 31.6 71 -4.8 23.4
19:55 1017 30.03 846 24.98 -0.4 31.3 72 -4.9 23.2
20:00 1017 30.03 846 24.98 -0.5 31.1 71 -5.2 22.7
20:05 1017 30.03 846 24.98 -0.5 31.1 70 -5.3 22.5
20:10 1017 30.03 846 24.98 -0.6 31 70 -5.4 22.3
20:15 1017 30.03 846 24.98 -0.5 31 69 -5.5 22.1
20:20 1017 30.03 846 24.98 -0.4 31.4 67 -5.7 21.8
20:25 1017 30.03 846 24.98 -0 32 65 -5.8 21.6
20:30 1017 30.03 846 24.98 0 32 65 -5.8 21.5
20:35 1017 30.03 846 24.98 -0.1 31.8 65 -5.9 21.5
20:40 1017 30.03 846 24.98 -0.2 31.7 64 -6.1 21.1
20:45 1017 30.03 846 24.98 -0.1 31.8 64 -6.2 20.8
20:50 1017 30.03 846 24.98 -0.4 31.3 64 -6.3 20.6
20:55 1017 30.03 846 24.98 -0.7 30.8 65 -6.4 20.5
21:00 1017 30.03 846 24.98 -0.8 30.5 66 -6.4 20.5
21:05 1017 30.03 846 24.98 -1 30.2 67 -6.4 20.4
21:10 1017 30.03 846 24.98 -1.2 29.9 67 -6.5 20.3
21:15 1017 30.03 846 24.98 -1.2 29.9 67 -6.5 20.3
21:20 1017 30.03 846 24.98 -1.5 29.3 68 -6.6 20.1
21:25 1017 30.03 847 25.01 -1.7 29 69 -6.6 20.1
21:30 1017 30.03 847 25.01 -1.8 28.8 70 -6.5 20.3
21:35 1017 30.03 847 25.01 -1.9 28.6 71 -6.4 20.4
21:40 1017 30.03 847 25.01 -1.8 28.8 72 -6.2 20.9
21:45 1017 30.03 847 25.01 -1.3 29.6 69 -6.3 20.7
21:50 1017 30.03 847 25.01 -1.1 30 67 -6.4 20.5
21:55 1017 30.03 847 25.01 -0.9 30.3 66 -6.5 20.4
22:00 1017 30.03 847 25.01 -0.9 30.4 66 -6.4 20.4
22:05 1017 30.03 847 25.01 -0.9 30.3 66 -6.5 20.3
22:10 1017 30.03 847 25.01 -0.7 30.8 65 -6.5 20.2
22:15 1017 30.03 847 25.01 -0.4 31.3 64 -6.5 20.4
22:20 1017 30.03 847 25.01 -0.7 30.7 63 -7 19.4
22:25 1017 30.03 847 25.01 -0.9 30.4 62 -7.2 19.1
22:30 1017 30.03 847 25.01 -1.1 30 63 -7.2 19
22:35 1017 30.03 847 25.01 -1.1 30.1 63 -7.2 19
22:40 1017 30.03 847 25.01 -1.2 29.9 63 -7.3 18.8
22:45 1017 30.03 847 25.01 -1.3 29.7 63 -7.5 18.6
22:50 1017 30.03 846 24.98 -1.4 29.4 63 -7.7 18.2
22:55 1017 30.03 847 25.01 -1.5 29.2 63 -7.7 18.1
23:00 1017 30.03 847 25.01 -1.6 29.1 62 -7.9 17.8
23:05 1017 30.03 846 24.98 -1.8 28.8 64 -7.8 18
23:10 1017 30.03 846 24.98 -2.2 28.1 65 -8 17.7
23:15 1017 30.03 846 24.98 -2.3 27.8 65 -8.1 17.4
23:20 1017 30.03 846 24.98 -2.4 27.6 65 -8.2 17.2
23:25 1017 30.03 846 24.98 -2.4 27.6 64 -8.3 17.1
23:30 1017 30.03 846 24.98 -2.5 27.5 65 -8.3 17.1
23:35 1017 30.03 846 24.98 -2.7 27.2 65 -8.3 17
23:40 1017 30.03 846 24.98 -2.9 26.7 66 -8.5 16.8
23:45 1017 30.03 846 24.98 -3.1 26.4 66 -8.5 16.6
23:50 1017 30.03 846 24.98 -3.1 26.5 66 -8.5 16.6
23:55 1017 30.03 846 24.98 -3 26.7 66 -8.5 16.7
24:00 1017 30.03 846 24.98 -2.8 26.9 65 -8.5 16.8